createdAt,value
2024-02-02T00:03:46.432Z,103107.31
2024-02-02T00:08:47.897Z,103101.00
2024-02-02T00:13:49.414Z,103092.84
2024-02-02T00:18:51.094Z,103080.47
2024-02-02T00:23:52.700Z,103063.91
2024-02-02T00:28:54.127Z,103072.41
2024-02-02T00:33:55.783Z,103074.13
2024-02-02T00:38:57.350Z,103092.59
2024-02-02T00:43:58.855Z,103097.25
2024-02-02T00:49:00.358Z,103087.50
2024-02-02T00:54:01.914Z,103058.22
2024-02-02T00:59:03.388Z,103063.63
2024-02-02T01:04:04.905Z,103069.78
2024-02-02T01:09:06.528Z,103055.56
2024-02-02T01:14:08.016Z,103064.28
2024-02-02T01:19:09.500Z,103052.34
2024-02-02T01:24:11.117Z,103041.06
2024-02-02T01:29:12.574Z,103030.19
2024-02-02T01:34:14.066Z,103043.25
2024-02-02T01:39:15.635Z,103036.63
2024-02-02T01:44:17.120Z,103031.22
2024-02-02T01:49:18.690Z,103015.22
2024-02-02T01:54:20.213Z,102991.38
2024-02-02T01:59:21.700Z,102979.72
2024-02-02T02:04:24.115Z,102996.66
2024-02-02T02:09:25.830Z,102987.97
2024-02-02T02:14:27.349Z,102983.91
2024-02-02T02:19:28.884Z,102990.69
2024-02-02T02:24:30.397Z,102987.41
2024-02-02T02:29:32.005Z,102983.81
2024-02-02T02:34:33.703Z,102988.44
2024-02-02T02:39:35.323Z,102980.56
2024-02-02T02:44:36.774Z,102956.91
2024-02-02T02:49:38.353Z,102948.69
2024-02-02T02:54:39.859Z,102938.16
2024-02-02T02:59:41.246Z,102938.94
2024-02-02T03:04:42.687Z,102933.63
2024-02-02T03:09:44.316Z,102914.59
2024-02-02T03:14:45.733Z,102888.91
2024-02-02T03:19:47.209Z,102882.78
2024-02-02T03:24:48.737Z,102893.47
2024-02-02T03:29:50.264Z,102898.75
2024-02-02T03:34:51.700Z,102897.19
2024-02-02T03:39:53.153Z,102904.34
2024-02-02T03:44:54.633Z,102891.31
2024-02-02T03:49:56.153Z,102888.56
2024-02-02T03:54:57.571Z,102886.00
2024-02-02T03:59:59.040Z,102879.94
2024-02-02T04:05:00.475Z,102879.13
2024-02-02T04:10:02.089Z,102877.41
2024-02-02T04:15:04.902Z,102881.09
2024-02-02T04:20:06.979Z,102873.16
2024-02-02T04:25:08.516Z,102889.06
2024-02-02T04:30:10.585Z,102884.91
2024-02-02T04:35:12.027Z,102880.44
2024-02-02T04:40:13.504Z,102855.09
2024-02-02T04:45:14.908Z,102856.03
2024-02-02T04:50:16.710Z,102843.72
2024-02-02T09:51:27.880Z,102767.47
2024-02-02T10:01:37.429Z,102766.41
2024-02-02T10:25:13.869Z,102696.22
2024-02-02T10:35:48.146Z,102683.16
2024-02-02T10:46:02.891Z,102685.56
2024-02-02T10:56:11.638Z,102692.59
2024-02-02T11:06:30.097Z,102686.31
2024-02-02T11:16:40.914Z,102689.56
2024-02-02T11:27:06.209Z,102680.13
2024-02-02T11:37:16.319Z,102654.84
2024-02-02T11:47:18.845Z,102676.38
2024-02-02T11:57:21.967Z,102667.47
2024-02-02T12:07:29.728Z,102644.91
2024-02-02T12:17:31.688Z,102629.34
2024-02-02T12:27:33.261Z,102626.31
2024-02-02T12:37:43.944Z,102635.38
2024-02-02T12:47:45.618Z,102631.84
2024-02-02T12:57:47.157Z,102606.00
2024-02-02T13:07:50.335Z,102603.44
2024-02-02T13:18:01.322Z,102587.38
2024-02-02T13:28:03.412Z,102570.53
2024-02-02T13:38:05.005Z,102565.13
2024-02-02T13:48:06.889Z,102565.63
2024-02-02T13:58:08.382Z,102548.81
2024-02-02T14:08:10.330Z,102537.81
2024-02-02T14:18:12.766Z,102544.34
2024-02-02T14:28:19.122Z,102550.38
2024-02-02T14:38:20.647Z,102550.97
2024-02-02T14:48:22.373Z,102537.19
2024-02-02T14:58:24.908Z,102530.03
2024-02-02T15:08:26.354Z,102524.56
2024-02-02T15:18:27.846Z,102529.63
2024-02-02T15:28:29.316Z,102527.16
2024-02-02T15:38:30.751Z,102508.34
2024-02-02T15:48:35.757Z,102493.59
2024-02-02T15:58:37.372Z,102523.94
2024-02-02T16:08:39.172Z,102504.06
2024-02-02T16:18:40.748Z,102495.63
2024-02-02T16:28:42.287Z,102501.56
2024-02-02T16:38:45.790Z,102525.81
2024-02-02T16:48:47.478Z,102533.63
2024-02-02T16:58:48.956Z,102518.50
2024-02-02T17:08:50.716Z,102512.59
2024-02-02T17:18:52.210Z,102511.25
2024-02-02T17:29:00.140Z,102522.31
2024-02-02T17:39:05.376Z,102551.38
2024-02-02T17:49:06.928Z,102563.66
2024-02-02T17:59:08.538Z,102571.22
2024-02-02T18:09:09.974Z,102577.31
2024-02-02T18:19:12.041Z,102580.47
2024-02-02T18:29:13.632Z,102588.75
2024-02-02T18:39:15.543Z,102591.13
2024-02-02T18:49:17.361Z,102592.91
2024-02-02T18:59:18.816Z,102597.16
2024-02-02T19:09:22.790Z,102590.84
2024-02-02T19:19:24.344Z,102592.34
2024-02-02T19:29:25.928Z,102581.38
2024-02-02T19:39:27.469Z,102581.78
2024-02-02T19:49:29.059Z,102597.44
2024-02-02T19:59:30.670Z,102599.22
2024-02-02T20:09:32.116Z,102584.84
2024-02-02T20:19:33.626Z,102591.66
2024-02-02T20:29:38.373Z,102612.38
2024-02-02T20:39:40.185Z,102603.94
2024-02-02T20:49:41.633Z,102610.75
2024-02-02T20:59:43.131Z,102587.97
2024-02-02T21:09:44.604Z,102589.03
2024-02-02T21:19:46.212Z,102583.22
2024-02-02T21:29:47.818Z,102582.59
2024-02-02T21:39:49.348Z,102569.88
2024-02-02T21:49:50.897Z,102579.50
2024-02-02T21:59:52.464Z,102592.38
2024-02-02T22:09:53.985Z,102582.97
2024-02-02T22:19:55.574Z,102568.81
2024-02-02T22:29:57.124Z,102578.09
2024-02-02T22:39:58.728Z,102581.28
2024-02-02T22:50:00.676Z,102563.69
2024-02-02T23:00:06.091Z,102551.28
2024-02-02T23:10:08.676Z,102546.13
2024-02-02T23:20:10.559Z,102556.41
2024-02-02T23:30:12.487Z,102549.22
2024-02-02T23:40:14.007Z,102557.69
2024-02-02T23:50:15.477Z,102554.81
